Time;durP1;ratioP1;P1;durP2;ratioP2;P2;SDS_P1;SDS_P2;PMS_P1;PMS_P2;Temp;Humidity;BMP_temperature;BMP_pressure;BME280_temperature;BME280_humidity;BME280_pressure;Samples;Min_cycle;Max_cycle;Signal;HPM_P1;HPM_P2
2022/09/23 00:01:01;;;;;;;5.80;4.55;;;;;;;8.11;76.45;98580.84;7394662;19;20047;-72
2022/09/23 00:03:29;;;;;;;6.75;5.10;;;;;;;7.99;77.91;98577.47;7392546;19;20402;-72
2022/09/23 00:06:00;;;;;;;8.02;5.10;;;;;;;7.99;77.48;98577.47;7390933;19;20022;-72
2022/09/23 00:08:28;;;;;;;6.03;5.35;;;;;;;7.94;77.55;98569.13;7391152;19;20039;-71
2022/09/23 00:10:55;;;;;;;9.85;5.53;;;;;;;7.93;77.48;98571.91;7391711;19;21969;-70
2022/09/23 00:13:23;;;;;;;5.82;4.97;;;;;;;7.86;77.13;98572.44;7393651;19;20010;-71
2022/09/23 00:15:50;;;;;;;5.93;5.30;;;;;;;7.85;76.91;98578.69;7395701;19;20018;-71
2022/09/23 00:18:19;;;;;;;6.88;5.05;;;;;;;7.73;77.12;98582.38;7389892;19;20058;-71
2022/09/23 00:20:46;;;;;;;5.93;4.40;;;;;;;7.73;77.27;98577.09;7389718;19;20022;-72
2022/09/23 00:23:13;;;;;;;6.88;4.57;;;;;;;7.75;76.95;98574.34;7391064;19;20047;-72
2022/09/23 00:25:40;;;;;;;8.55;4.70;;;;;;;7.74;77.04;98577.94;7395687;19;20066;-71
2022/09/23 00:28:06;;;;;;;5.68;4.45;;;;;;;7.73;77.22;98576.28;7391175;19;20019;-72
2022/09/23 00:30:33;;;;;;;6.13;4.43;;;;;;;7.76;77.42;98571.56;7394272;19;20046;-72
2022/09/23 00:33:00;;;;;;;6.13;4.32;;;;;;;7.82;77.20;98573.69;7395040;19;20007;-71
2022/09/23 00:35:27;;;;;;;5.20;4.57;;;;;;;7.74;77.36;98572.66;7387645;19;20035;-72
2022/09/23 00:37:53;;;;;;;4.90;4.38;;;;;;;7.75;77.32;98575.16;7386054;19;20049;-72
2022/09/23 00:40:20;;;;;;;7.82;5.20;;;;;;;7.52;78.04;98571.06;7392216;19;20050;-71
2022/09/23 00:42:48;;;;;;;11.02;4.95;;;;;;;7.24;79.21;98562.84;7391033;19;20014;-72
2022/09/23 00:45:15;;;;;;;5.57;4.65;;;;;;;7.29;79.57;98565.09;7392359;19;20018;-71
2022/09/23 00:47:52;;;;;;;6.35;4.25;;;;;;;7.22;79.73;98564.81;7391564;19;20026;-71
2022/09/23 00:50:33;;;;;;;6.20;4.70;;;;;;;7.25;79.35;98568.00;7390343;19;20042;-72
2022/09/23 00:53:04;;;;;;;5.47;4.53;;;;;;;7.20;79.25;98562.28;7391221;19;20014;-71
2022/09/23 00:55:34;;;;;;;6.68;4.80;;;;;;;7.19;80.33;98557.19;7386208;19;21365;-71
2022/09/23 00:58:04;;;;;;;5.88;4.53;;;;;;;7.16;80.55;98557.41;7388788;19;20039;-71
2022/09/23 01:00:32;;;;;;;6.22;5.32;;;;;;;7.11;80.05;98557.81;7386972;19;20019;-70
2022/09/23 01:02:59;;;;;;;9.13;5.35;;;;;;;7.07;79.85;98560.84;7388004;19;20105;-71
2022/09/23 01:05:26;;;;;;;6.72;5.00;;;;;;;7.01;79.98;98559.56;7389219;19;20388;-70
2022/09/23 01:07:56;;;;;;;6.47;4.88;;;;;;;6.87;80.16;98557.22;7391850;19;20014;-72
2022/09/23 01:10:23;;;;;;;6.82;5.95;;;;;;;6.85;80.44;98554.75;7389469;19;20505;-72
2022/09/23 01:13:27;;;;;;;6.65;5.95;;;;;;;6.77;80.59;98557.19;7387002;19;20035;-72
2022/09/23 01:16:29;;;;;;;8.50;5.13;;;;;;;6.89;80.25;98557.94;7391417;19;20035;-72
2022/09/23 01:19:07;;;;;;;10.35;6.22;;;;;;;6.89;80.20;98556.13;7388462;19;20411;-72
2022/09/23 01:21:44;;;;;;;12.75;7.82;;;;;;;6.88;80.64;98548.41;7388858;19;20019;-71
2022/09/23 01:24:16;;;;;;;11.45;7.43;;;;;;;6.79;80.85;98552.59;7389777;19;20014;-72
2022/09/23 01:26:55;;;;;;;12.93;7.72;;;;;;;6.78;80.93;98554.41;7390376;19;20041;-72
2022/09/23 01:29:36;;;;;;;11.93;6.82;;;;;;;6.94;80.62;98548.69;7383113;19;20031;-71
2022/09/23 01:32:18;;;;;;;10.38;6.05;;;;;;;6.93;80.52;98548.84;7389439;19;20014;-71
2022/09/23 01:34:59;;;;;;;11.18;7.30;;;;;;;6.88;80.82;98553.66;7388441;19;20490;-72
2022/09/23 01:38:14;;;;;;;9.60;6.97;;;;;;;6.89;81.24;98548.25;7390593;19;20015;-72
2022/09/23 01:40:49;;;;;;;7.45;6.15;;;;;;;6.95;81.14;98542.50;7389991;19;20030;-72
2022/09/23 01:43:24;;;;;;;6.25;5.60;;;;;;;6.98;81.08;98542.22;7388745;19;20027;-72
2022/09/23 01:45:55;;;;;;;8.02;6.15;;;;;;;7.02;81.15;98535.72;7385870;19;20368;-72
2022/09/23 01:48:32;;;;;;;9.90;5.55;;;;;;;6.99;81.36;98537.81;7385568;19;20056;-72
2022/09/23 01:51:22;;;;;;;5.88;5.28;;;;;;;7.01;80.77;98528.81;7388084;19;20025;-72
2022/09/23 01:54:26;;;;;;;5.70;4.80;;;;;;;6.98;80.80;98528.25;7388184;19;20007;-72
2022/09/23 01:57:24;;;;;;;8.50;5.63;;;;;;;6.92;80.72;98529.56;7390892;19;20034;-73
2022/09/23 01:59:55;;;;;;;6.55;4.90;;;;;;;6.91;80.59;98530.56;7384782;19;20022;-70
2022/09/23 02:02:30;;;;;;;6.35;5.18;;;;;;;6.90;80.68;98528.91;7383585;19;20018;-72
2022/09/23 02:05:02;;;;;;;6.90;4.82;;;;;;;6.83;80.44;98525.09;7389283;19;20730;-72
2022/09/23 02:07:34;;;;;;;7.43;5.15;;;;;;;6.69;80.72;98528.03;7389069;19;20018;-71
2022/09/23 02:10:06;;;;;;;7.87;5.50;;;;;;;6.49;81.11;98530.53;7389064;19;20011;-71
2022/09/23 02:12:34;;;;;;;6.87;5.63;;;;;;;6.39;81.26;98529.59;7386151;19;20286;-72
2022/09/23 02:15:25;;;;;;;6.13;5.33;;;;;;;6.41;80.82;98525.06;7387171;19;20279;-72
2022/09/23 02:17:51;;;;;;;6.00;5.43;;;;;;;6.43;80.70;98528.41;7383984;19;20041;-72
2022/09/23 02:20:23;;;;;;;6.95;5.60;;;;;;;6.38;80.90;98526.16;7385655;19;20370;-70
2022/09/23 02:23:00;;;;;;;8.55;5.82;;;;;;;6.40;80.69;98523.41;7387435;19;20592;-72
2022/09/23 02:25:38;;;;;;;6.10;5.50;;;;;;;6.34;80.81;98531.78;7388351;19;20046;-73
2022/09/23 02:28:15;;;;;;;6.43;5.35;;;;;;;6.24;81.36;98518.56;7386594;19;20014;-72
2022/09/23 02:30:48;;;;;;;9.80;5.53;;;;;;;6.25;81.71;98516.78;7388942;19;20043;-71
2022/09/23 02:33:34;;;;;;;7.13;5.40;;;;;;;6.32;81.76;98516.16;7384142;19;20022;-72
2022/09/23 02:36:10;;;;;;;9.67;6.27;;;;;;;6.25;81.83;98514.16;7379858;19;20403;-71
2022/09/23 02:38:42;;;;;;;7.43;5.33;;;;;;;6.12;81.79;98516.94;7385245;19;20014;-71
2022/09/23 02:41:40;;;;;;;8.73;5.90;;;;;;;6.00;81.95;98510.84;7390484;19;20021;-72
2022/09/23 02:44:10;;;;;;;7.97;5.40;;;;;;;5.90;82.04;98513.38;7386849;19;20018;-72
2022/09/23 02:46:37;;;;;;;8.47;5.80;;;;;;;5.83;82.09;98514.81;7385702;19;20347;-71
2022/09/23 02:49:21;;;;;;;8.03;6.20;;;;;;;5.76;82.37;98508.38;7386488;19;20427;-71
2022/09/23 02:51:48;;;;;;;6.77;5.70;;;;;;;5.71;82.45;98500.88;7383320;19;20018;-70
2022/09/23 02:54:24;;;;;;;6.90;5.87;;;;;;;5.65;82.81;98506.59;7385816;19;20057;-70
2022/09/23 02:56:52;;;;;;;7.73;6.43;;;;;;;5.63;82.86;98508.50;7383165;19;20034;-69
2022/09/23 02:59:20;;;;;;;8.50;6.10;;;;;;;5.61;83.14;98507.81;7385477;19;20057;-69
2022/09/23 03:02:12;;;;;;;8.67;6.97;;;;;;;5.60;83.33;98508.75;7384921;19;20014;-71
2022/09/23 03:05:04;;;;;;;7.88;5.93;;;;;;;5.79;83.71;98502.03;7388149;19;20470;-71
2022/09/23 03:07:46;;;;;;;8.80;7.60;;;;;;;5.85;83.22;98506.81;7383433;19;20014;-70
2022/09/23 03:10:28;;;;;;;9.38;6.97;;;;;;;5.84;83.16;98502.50;7383408;19;20741;-70
2022/09/23 03:13:15;;;;;;;8.13;6.93;;;;;;;6.02;83.19;98502.88;7385599;19;20052;-71
2022/09/23 03:15:54;;;;;;;8.47;6.83;;;;;;;6.03;82.90;98500.13;7387148;19;20007;-71
2022/09/23 03:18:33;;;;;;;8.30;6.60;;;;;;;5.83;82.85;98503.47;7384350;19;20018;-71
2022/09/23 03:21:05;;;;;;;10.00;6.53;;;;;;;5.71;82.95;98497.41;7387837;19;20018;-71
2022/09/23 03:23:34;;;;;;;11.45;7.10;;;;;;;5.60;82.94;98505.31;7382053;19;20382;-71
2022/09/23 03:26:05;;;;;;;7.20;6.10;;;;;;;5.70;82.97;98506.25;7381320;19;20777;-71
2022/09/23 03:28:35;;;;;;;8.73;6.50;;;;;;;5.77;82.58;98499.56;7381949;19;20022;-71
2022/09/23 03:31:02;;;;;;;6.83;5.83;;;;;;;5.88;82.79;98502.16;7383212;19;20019;-70
2022/09/23 03:33:29;;;;;;;12.10;6.40;;;;;;;5.96;83.00;98508.63;7386376;19;20014;-71
2022/09/23 03:38:49;;;;;;;7.47;5.37;;;;;;;5.91;82.83;98511.56;7384339;19;20014;-71
2022/09/23 03:41:27;;;;;;;9.03;6.07;;;;;;;5.66;82.84;98510.06;7382956;19;20383;-70
2022/09/23 03:43:57;;;;;;;8.37;7.17;;;;;;;5.49;83.27;98499.09;7377832;19;20018;-70
2022/09/23 03:46:28;;;;;;;9.63;7.03;;;;;;;5.63;83.35;98498.00;7383290;19;20573;-70
2022/09/23 03:48:59;;;;;;;9.03;6.17;;;;;;;5.80;83.27;98494.06;7385488;19;20025;-72
2022/09/23 03:51:25;;;;;;;9.57;6.30;;;;;;;5.88;82.84;98489.03;7386870;19;20308;-72
2022/09/23 03:53:52;;;;;;;8.87;6.23;;;;;;;5.89;82.89;98485.44;7384488;19;20029;-70
2022/09/23 03:56:19;;;;;;;7.40;6.30;;;;;;;5.98;82.81;98491.78;7382451;19;20688;-71
2022/09/23 03:58:47;;;;;;;7.53;6.07;;;;;;;6.36;81.55;98490.44;7380870;19;20015;-71
2022/09/23 04:01:14;;;;;;;7.33;6.27;;;;;;;6.46;81.04;98491.34;7385932;19;20397;-71
2022/09/23 04:03:42;;;;;;;8.00;7.00;;;;;;;6.51;80.66;98483.94;7385226;19;20011;-71
2022/09/23 04:06:08;;;;;;;6.57;5.87;;;;;;;6.53;80.17;98486.41;7383133;19;20050;-71
2022/09/23 04:08:36;;;;;;;7.67;5.77;;;;;;;6.51;80.46;98483.09;7383372;19;20043;-70
2022/09/23 04:11:03;;;;;;;9.60;5.63;;;;;;;6.47;80.58;98477.25;7386098;19;20014;-71
2022/09/23 04:13:30;;;;;;;5.50;5.00;;;;;;;6.48;80.46;98476.31;7383353;19;20019;-72
2022/09/23 04:15:57;;;;;;;6.60;5.17;;;;;;;6.48;80.55;98465.78;7378491;19;20019;-71
2022/09/23 04:18:24;;;;;;;5.97;5.37;;;;;;;6.49;80.44;98464.81;7384138;19;20023;-71
2022/09/23 04:20:51;;;;;;;6.73;4.90;;;;;;;6.48;80.48;98464.97;7386521;19;20021;-71
2022/09/23 04:23:17;;;;;;;6.10;5.10;;;;;;;6.45;80.29;98463.41;7385498;19;20018;-70
2022/09/23 04:25:48;;;;;;;5.00;4.50;;;;;;;6.44;80.31;98466.16;7385581;19;20387;-72
2022/09/23 04:28:15;;;;;;;6.63;5.37;;;;;;;6.40;79.99;98465.59;7382934;19;20006;-72
2022/09/23 04:30:42;;;;;;;5.67;4.90;;;;;;;6.38;80.27;98460.44;7375630;19;20546;-71
2022/09/23 04:33:10;;;;;;;6.17;4.97;;;;;;;6.44;79.99;98460.91;7375946;19;20502;-71
2022/09/23 04:35:38;;;;;;;5.50;4.90;;;;;;;6.39;79.75;98463.91;7385318;19;20043;-71
2022/09/23 04:38:06;;;;;;;5.83;5.00;;;;;;;6.32;79.66;98463.59;7388090;19;20015;-72
2022/09/23 04:40:34;;;;;;;5.97;5.00;;;;;;;6.27;79.32;98457.88;7388803;19;20039;-71
2022/09/23 04:43:01;;;;;;;7.00;5.53;;;;;;;6.25;79.63;98458.97;7386238;19;20018;-71
2022/09/23 04:45:28;;;;;;;6.13;4.97;;;;;;;6.22;79.55;98460.06;7385794;19;20908;-72
2022/09/23 04:47:57;;;;;;;5.43;4.90;;;;;;;6.22;79.60;98457.44;7383123;19;20039;-71
2022/09/23 04:50:25;;;;;;;7.03;5.07;;;;;;;6.24;79.69;98460.78;7380697;19;20631;-71
2022/09/23 04:52:52;;;;;;;6.37;5.37;;;;;;;6.24;79.73;98459.91;7388606;19;20030;-72
2022/09/23 04:55:20;;;;;;;7.07;4.67;;;;;;;6.23;79.94;98459.09;7386303;19;20018;-72
2022/09/23 04:57:47;;;;;;;7.10;5.40;;;;;;;6.25;79.72;98466.84;7382050;19;20046;-70
2022/09/23 05:00:14;;;;;;;13.03;8.77;;;;;;;6.31;79.71;98458.47;7390773;19;20041;-71
2022/09/23 05:02:44;;;;;;;19.80;13.10;;;;;;;6.33;79.94;98469.69;7389629;19;20011;-71
2022/09/23 05:05:11;;;;;;;16.00;10.90;;;;;;;6.38;79.89;98470.97;7382828;19;20015;-71
2022/09/23 05:07:39;;;;;;;11.48;7.85;;;;;;;6.42;79.75;98466.28;7385458;19;20018;-72
2022/09/23 05:10:06;;;;;;;7.23;5.87;;;;;;;6.48;79.77;98463.16;7387583;19;20043;-72
2022/09/23 05:12:33;;;;;;;7.40;5.97;;;;;;;6.49;79.75;98479.75;7386909;19;20761;-72
2022/09/23 05:14:59;;;;;;;11.17;5.30;;;;;;;6.51;79.70;98473.41;7390382;19;20019;-72
2022/09/23 05:17:28;;;;;;;6.13;5.18;;;;;;;6.49;79.58;98483.22;7391270;19;20034;-72
2022/09/23 05:19:56;;;;;;;6.90;5.10;;;;;;;6.48;79.77;98478.09;7388755;19;20014;-73
2022/09/23 05:22:25;;;;;;;9.37;5.63;;;;;;;6.48;80.25;98486.81;7384573;19;20022;-72
2022/09/23 05:24:52;;;;;;;7.63;5.73;;;;;;;6.58;80.25;98484.22;7375829;19;20439;-72
2022/09/23 05:27:19;;;;;;;5.30;4.80;;;;;;;6.71;80.12;98477.00;7386023;19;20380;-72
2022/09/23 05:29:46;;;;;;;5.60;5.00;;;;;;;6.67;79.84;98486.13;7384973;19;20052;-72
2022/09/23 05:32:14;;;;;;;6.03;5.00;;;;;;;6.65;79.82;98481.94;7382834;19;20034;-72
2022/09/23 05:34:40;;;;;;;7.43;5.20;;;;;;;6.51;79.68;98483.94;7384404;19;20038;-72
2022/09/23 05:37:08;;;;;;;6.33;5.33;;;;;;;6.42;79.58;98478.59;7384155;19;20765;-71
2022/09/23 05:39:35;;;;;;;6.83;5.23;;;;;;;6.50;79.47;98482.28;7385296;19;20018;-71
2022/09/23 05:42:02;;;;;;;7.77;5.73;;;;;;;6.57;78.92;98483.41;7389257;19;20035;-70
2022/09/23 05:44:28;;;;;;;11.23;5.80;;;;;;;6.51;79.20;98483.94;7388660;19;20814;-72
2022/09/23 05:46:55;;;;;;;9.37;5.97;;;;;;;6.46;79.43;98483.47;7390508;19;20014;-72
2022/09/23 05:49:22;;;;;;;7.67;5.30;;;;;;;6.53;79.53;98491.66;7387164;19;20021;-70
2022/09/23 05:52:08;;;;;;;6.50;5.70;;;;;;;6.70;79.41;98490.28;7388780;19;20014;-72
2022/09/23 05:54:35;;;;;;;6.47;4.67;;;;;;;6.80;79.13;98491.19;7387383;19;20021;-72
2022/09/23 05:57:02;;;;;;;7.87;6.23;;;;;;;6.86;78.73;98480.13;7386284;19;20387;-72
2022/09/23 05:59:30;;;;;;;7.57;6.13;;;;;;;6.83;78.69;98480.41;7388850;19;20136;-72
2022/09/23 06:01:57;;;;;;;7.17;5.60;;;;;;;6.87;78.87;98479.16;7389526;19;20026;-72
2022/09/23 06:04:24;;;;;;;7.67;5.93;;;;;;;6.92;78.98;98478.78;7391369;19;20039;-72
2022/09/23 06:06:51;;;;;;;8.60;6.27;;;;;;;7.27;79.01;98481.03;7389768;19;20482;-72
2022/09/23 06:09:18;;;;;;;10.03;6.50;;;;;;;7.57;78.62;98481.97;7388751;19;20018;-72
2022/09/23 06:11:45;;;;;;;11.37;5.67;;;;;;;7.61;77.76;98480.72;7387176;19;20056;-71
2022/09/23 06:14:13;;;;;;;9.50;6.77;;;;;;;7.73;77.56;98479.66;7388407;19;20011;-72
2022/09/23 06:16:40;;;;;;;8.90;6.03;;;;;;;7.92;77.21;98478.84;7388341;19;20380;-72
2022/09/23 06:19:07;;;;;;;8.87;5.97;;;;;;;8.05;76.47;98474.16;7388895;19;20019;-72
2022/09/23 06:21:36;;;;;;;7.53;5.60;;;;;;;8.24;76.65;98483.91;7388673;19;20374;-72
2022/09/23 06:24:05;;;;;;;7.82;5.47;;;;;;;8.49;76.37;98473.78;7390980;19;20026;-72
2022/09/23 06:26:35;;;;;;;7.07;5.60;;;;;;;8.69;75.74;98470.16;7388809;19;20061;-72
2022/09/23 06:29:03;;;;;;;9.85;6.95;;;;;;;8.82;74.72;98469.88;7384574;19;20514;-71
2022/09/23 06:31:30;;;;;;;7.60;5.57;;;;;;;8.97;74.88;98463.13;7388803;19;20018;-72
2022/09/23 06:33:56;;;;;;;11.10;5.75;;;;;;;9.11;74.50;98459.22;7390733;19;20011;-72
2022/09/23 06:36:42;;;;;;;6.68;5.00;;;;;;;9.27;74.38;98463.91;7387598;19;20018;-72
2022/09/23 06:39:14;;;;;;;8.18;5.40;;;;;;;9.30;74.59;98458.31;7386690;19;20082;-72
2022/09/23 06:41:43;;;;;;;6.88;4.80;;;;;;;9.17;73.66;98469.19;7389275;19;20013;-72
2022/09/23 06:44:13;;;;;;;7.13;5.22;;;;;;;9.10;72.93;98462.00;7386449;19;20006;-72
2022/09/23 06:46:40;;;;;;;8.02;4.90;;;;;;;9.30;73.88;98460.97;7384962;19;20010;-70
2022/09/23 06:49:07;;;;;;;7.20;4.93;;;;;;;9.60;73.24;98467.75;7386920;19;20019;-72
2022/09/23 06:51:34;;;;;;;7.53;5.07;;;;;;;9.76;72.93;98464.47;7387899;19;20015;-72
2022/09/23 06:54:01;;;;;;;11.95;5.20;;;;;;;9.84;73.36;98469.84;7387173;19;20018;-73
2022/09/23 06:56:31;;;;;;;6.13;4.43;;;;;;;9.93;72.93;98467.31;7386303;19;20021;-71
2022/09/23 06:59:04;;;;;;;5.70;4.82;;;;;;;10.08;72.59;98463.13;7385516;19;20043;-72
2022/09/23 07:01:32;;;;;;;7.50;5.05;;;;;;;10.08;72.31;98469.28;7389653;19;20014;-72
2022/09/23 07:04:00;;;;;;;6.88;5.00;;;;;;;10.04;72.58;98472.38;7386282;19;20018;-73
2022/09/23 07:06:27;;;;;;;6.72;4.38;;;;;;;10.04;71.82;98473.19;7388484;19;20380;-71
2022/09/23 07:08:53;;;;;;;7.32;4.80;;;;;;;10.11;71.86;98471.63;7387399;19;20042;-72
2022/09/23 07:11:21;;;;;;;6.93;4.68;;;;;;;10.30;71.68;98475.13;7388371;19;20018;-72
2022/09/23 07:13:48;;;;;;;5.45;4.43;;;;;;;10.33;71.40;98478.28;7387636;19;20021;-72
2022/09/23 07:16:15;;;;;;;9.60;4.97;;;;;;;10.44;71.75;98471.94;7387133;19;20474;-72
2022/09/23 07:18:41;;;;;;;7.20;4.68;;;;;;;10.63;70.77;98473.56;7383055;19;20605;-71
2022/09/23 07:21:14;;;;;;;6.35;4.57;;;;;;;10.86;69.89;98460.69;7384216;19;20094;-72
2022/09/23 07:23:41;;;;;;;;;;;;;;;11.10;69.59;98465.28;7389964;19;20010;-72
2022/09/23 07:26:08;;;;;;;5.60;4.63;;;;;;;11.16;69.21;98469.13;7388354;19;20350;-72
2022/09/23 07:28:36;;;;;;;6.32;4.55;;;;;;;11.58;68.97;98469.16;7385550;19;20062;-72
2022/09/23 07:31:12;;;;;;;5.50;4.25;;;;;;;11.86;67.81;98475.09;7386548;19;20035;-71
2022/09/23 07:33:42;;;;;;;4.95;4.32;;;;;;;12.00;66.62;98470.16;7388046;19;20014;-72
2022/09/23 07:36:11;;;;;;;6.15;4.47;;;;;;;12.31;66.43;98473.03;7383102;19;20035;-72
2022/09/23 07:38:38;;;;;;;5.97;4.90;;;;;;;12.48;64.09;98480.00;7383664;19;20026;-73
2022/09/23 07:41:13;;;;;;;4.53;4.07;;;;;;;12.83;64.65;98474.53;7388519;19;20055;-72
2022/09/23 07:43:40;;;;;;;6.35;4.55;;;;;;;12.93;64.95;98460.06;7387721;19;20021;-73
2022/09/23 07:46:10;;;;;;;5.05;4.30;;;;;;;13.02;63.30;98463.53;7386902;19;20052;-72
2022/09/23 07:48:38;;;;;;;5.65;4.07;;;;;;;13.31;63.87;98464.81;7384349;19;20018;-73
2022/09/23 07:51:08;;;;;;;4.40;4.00;;;;;;;13.37;62.63;98472.09;7385094;19;20010;-73
2022/09/23 07:53:35;;;;;;;7.10;4.55;;;;;;;13.24;62.00;98466.47;7382094;19;20014;-72
2022/09/23 07:56:05;;;;;;;8.18;4.05;;;;;;;13.27;61.51;98458.19;7384522;19;20015;-73
2022/09/23 07:58:32;;;;;;;5.88;3.75;;;;;;;13.49;61.23;98469.91;7383161;19;20018;-72
2022/09/23 08:01:05;;;;;;;4.43;3.60;;;;;;;13.52;61.54;98464.25;7385389;19;20014;-72
2022/09/23 08:03:32;;;;;;;3.92;3.50;;;;;;;13.44;60.97;98469.59;7387882;19;20027;-73
2022/09/23 08:06:16;;;;;;;5.90;3.60;;;;;;;13.72;60.77;98465.50;7385944;19;20026;-72
2022/09/23 08:08:43;;;;;;;3.85;3.30;;;;;;;13.87;61.14;98470.06;7383260;19;20496;-73
2022/09/23 08:11:12;;;;;;;4.65;3.60;;;;;;;13.75;60.27;98467.00;7391856;19;20031;-73
2022/09/23 08:13:39;;;;;;;5.57;3.65;;;;;;;13.80;60.77;98459.31;7392030;19;20371;-73
2022/09/23 08:16:06;;;;;;;5.07;4.30;;;;;;;13.90;60.23;98467.06;7394371;19;20007;-72
2022/09/23 08:18:33;;;;;;;7.05;4.28;;;;;;;14.15;59.00;98465.91;7391457;19;20640;-72
2022/09/23 08:21:00;;;;;;;5.00;4.22;;;;;;;14.11;59.96;98469.09;7395137;19;20035;-72
2022/09/23 08:23:32;;;;;;;4.05;3.47;;;;;;;14.31;59.82;98464.97;7393761;19;20050;-73
2022/09/23 08:26:01;;;;;;;5.33;3.60;;;;;;;14.39;59.06;98472.09;7389088;19;20528;-73
2022/09/23 08:28:28;;;;;;;4.85;3.88;;;;;;;14.43;60.03;98463.56;7389849;19;20287;-73
2022/09/23 08:30:55;;;;;;;5.95;4.18;;;;;;;14.38;60.52;98468.59;7393793;19;20293;-73
2022/09/23 08:33:22;;;;;;;5.22;3.67;;;;;;;14.26;59.59;98468.16;7394682;19;20456;-72
2022/09/23 08:35:50;;;;;;;4.47;3.40;;;;;;;14.76;59.60;98462.50;7393036;19;20029;-71
2022/09/23 08:38:16;;;;;;;7.00;3.75;;;;;;;14.63;58.41;98468.44;7389836;19;20046;-72
2022/09/23 08:40:46;;;;;;;7.57;4.03;;;;;;;14.91;58.31;98460.69;7392847;19;20022;-73
2022/09/23 08:43:24;;;;;;;7.90;3.67;;;;;;;14.92;57.82;98463.16;7389341;19;20015;-73
2022/09/23 08:45:52;;;;;;;7.70;3.35;;;;;;;14.96;58.31;98462.81;7392721;19;20052;-72
2022/09/23 08:48:27;;;;;;;5.03;4.40;;;;;;;14.91;59.19;98456.19;7389705;19;20023;-73
2022/09/23 08:51:00;;;;;;;4.40;3.53;;;;;;;14.97;57.43;98453.81;7390597;19;20018;-72
2022/09/23 08:53:38;;;;;;;4.95;3.33;;;;;;;15.25;57.92;98457.50;7392097;19;20477;-70
2022/09/23 08:56:11;;;;;;;3.88;3.38;;;;;;;15.13;57.85;98456.31;7389910;19;20034;-70
2022/09/23 08:58:43;;;;;;;3.80;3.40;;;;;;;15.20;55.74;98453.75;7386976;19;20391;-72
2022/09/23 09:01:35;;;;;;;3.45;3.03;;;;;;;15.57;56.91;98450.16;7389083;19;20022;-73
2022/09/23 09:04:22;;;;;;;7.37;3.60;;;;;;;15.41;57.43;98466.34;7390978;19;20078;-73
2022/09/23 09:07:07;;;;;;;4.65;3.33;;;;;;;15.68;57.19;98457.66;7392277;19;20247;-73
2022/09/23 09:10:14;;;;;;;3.30;3.00;;;;;;;15.74;56.57;98453.44;7392851;19;20508;-73
2022/09/23 09:12:46;;;;;;;5.40;3.10;;;;;;;15.69;56.09;98456.69;7392509;19;20019;-73
2022/09/23 09:15:17;;;;;;;4.43;2.90;;;;;;;15.85;55.57;98449.47;7387654;19;20018;-73
2022/09/23 09:18:00;;;;;;;5.47;2.83;;;;;;;15.48;56.56;98451.25;7382658;19;20035;-72
2022/09/23 09:20:36;;;;;;;4.53;2.90;;;;;;;15.54;56.44;98443.34;7390885;19;20027;-73
2022/09/23 09:23:14;;;;;;;4.78;3.20;;;;;;;15.34;56.06;98445.72;7390321;19;20034;-73
2022/09/23 09:25:51;;;;;;;3.47;2.92;;;;;;;15.22;58.81;98443.72;7391747;19;20014;-73
2022/09/23 09:28:29;;;;;;;4.32;2.95;;;;;;;15.44;58.93;98433.97;7388838;19;20053;-73
2022/09/23 09:30:59;;;;;;;4.18;3.17;;;;;;;15.53;57.11;98436.38;7389303;19;20046;-72
2022/09/23 09:33:36;;;;;;;4.38;2.90;;;;;;;15.74;58.08;98442.78;7386627;19;20458;-73
2022/09/23 09:36:29;;;;;;;3.65;3.00;;;;;;;15.72;58.67;98442.16;7391680;19;20015;-73
2022/09/23 09:38:58;;;;;;;5.25;3.00;;;;;;;15.97;57.26;98437.31;7390018;19;20018;-72
2022/09/23 09:41:27;;;;;;;6.30;3.28;;;;;;;15.84;57.86;98432.63;7392933;19;20014;-73
2022/09/23 09:43:58;;;;;;;4.25;2.95;;;;;;;15.85;56.97;98430.78;7390134;19;20035;-73
2022/09/23 09:46:28;;;;;;;7.95;3.42;;;;;;;16.01;56.33;98425.25;7390025;19;20007;-72
2022/09/23 09:49:21;;;;;;;8.88;3.80;;;;;;;15.76;52.53;98425.56;7385471;19;20014;-71
2022/09/23 09:52:11;;;;;;;5.60;2.85;;;;;;;15.87;55.71;98420.78;7387713;19;20011;-72
2022/09/23 09:54:38;;;;;;;4.30;2.42;;;;;;;15.68;55.63;98415.00;7391865;19;20010;-73
2022/09/23 09:57:15;;;;;;;7.35;4.60;;;;;;;15.76;55.16;98417.56;7389428;19;20048;-72
2022/09/23 09:59:45;;;;;;;4.22;2.72;;;;;;;15.84;56.65;98405.16;7387950;19;20038;-73
2022/09/23 10:02:23;;;;;;;3.60;2.65;;;;;;;15.97;55.30;98402.63;7389372;19;20011;-72
2022/09/23 10:05:00;;;;;;;9.00;3.15;;;;;;;16.08;55.92;98401.28;7389693;19;20014;-72
2022/09/23 10:07:31;;;;;;;5.55;3.10;;;;;;;16.20;56.31;98397.91;7384787;19;20493;-72
2022/09/23 10:10:16;;;;;;;2.92;2.58;;;;;;;16.11;55.48;98398.22;7390390;19;20006;-73
2022/09/23 10:13:13;;;;;;;8.35;3.08;;;;;;;16.35;56.69;98405.03;7389369;19;20015;-72
2022/09/23 10:15:42;;;;;;;5.10;2.67;;;;;;;16.49;56.66;98398.78;7389166;19;20018;-70
2022/09/23 10:18:18;;;;;;;8.05;2.40;;;;;;;16.52;55.90;98394.91;7387645;19;20014;-72
2022/09/23 10:20:45;;;;;;;4.25;2.30;;;;;;;16.52;55.94;98398.41;7387803;19;20010;-71
2022/09/23 10:23:26;;;;;;;6.15;3.10;;;;;;;16.34;56.21;98390.84;7382349;19;20042;-73
2022/09/23 10:26:11;;;;;;;4.80;2.97;;;;;;;16.41;55.54;98389.06;7389020;19;20040;-71
2022/09/23 10:29:24;;;;;;;3.65;2.55;;;;;;;16.63;52.89;98384.50;7386837;19;20042;-73
2022/09/23 10:32:31;;;;;;;3.95;2.42;;;;;;;16.65;54.34;98385.16;7388731;19;20018;-73
2022/09/23 10:35:08;;;;;;;5.90;2.47;;;;;;;16.23;53.58;98397.53;7390096;19;20017;-72
2022/09/23 10:37:58;;;;;;;23.40;5.28;;;;;;;16.27;55.97;98386.47;7384589;19;20481;-73
2022/09/23 10:49:12;;;;;;;21.42;6.15;;;;;;;16.59;52.24;98374.44;7386392;19;20048;-71
2022/09/23 10:52:01;;;;;;;12.70;4.20;;;;;;;16.56;54.50;98364.97;7388039;19;20026;-73
2022/09/23 10:55:05;;;;;;;4.68;2.83;;;;;;;16.64;52.79;98371.97;7387017;19;20010;-73
2022/09/23 10:57:45;;;;;;;3.42;2.53;;;;;;;16.77;54.46;98371.25;7382918;19;20010;-73
2022/09/23 11:00:31;;;;;;;3.53;2.65;;;;;;;16.89;52.94;98353.69;7387615;19;20019;-73
2022/09/23 11:03:31;;;;;;;11.20;2.90;;;;;;;17.05;52.89;98358.69;7388907;19;20014;-72
2022/09/23 11:06:36;;;;;;;3.20;2.70;;;;;;;17.07;53.58;98350.50;7388933;19;20022;-73
2022/09/23 11:09:28;;;;;;;5.93;2.85;;;;;;;17.28;53.45;98357.59;7384961;19;20026;-73
2022/09/23 11:12:05;;;;;;;4.43;2.70;;;;;;;17.04;53.47;98356.25;7386197;19;20191;-73
2022/09/23 11:14:51;;;;;;;3.28;2.58;;;;;;;17.21;51.81;98349.53;7384496;19;20022;-73
2022/09/23 11:17:42;;;;;;;3.90;2.42;;;;;;;17.37;53.30;98352.88;7386954;19;20018;-73
2022/09/23 11:20:42;;;;;;;6.90;2.90;;;;;;;17.53;49.31;98345.31;7389499;19;20039;-73
2022/09/23 11:23:22;;;;;;;5.32;2.53;;;;;;;17.61;48.54;98344.31;7386060;19;20042;-73
2022/09/23 11:26:16;;;;;;;5.93;2.67;;;;;;;17.61;52.68;98340.81;7387551;19;20489;-73
2022/09/23 11:29:41;;;;;;;3.78;2.83;;;;;;;17.36;52.18;98332.53;7384255;19;20049;-73
2022/09/23 11:32:43;;;;;;;6.00;3.30;;;;;;;17.26;51.98;98330.22;7382648;19;20047;-72
2022/09/23 11:35:15;;;;;;;8.27;3.20;;;;;;;17.40;50.73;98328.41;7386795;19;20694;-72
2022/09/23 11:37:57;;;;;;;5.50;2.38;;;;;;;17.49;49.39;98321.88;7380711;19;20022;-74
2022/09/23 11:40:30;;;;;;;4.78;2.10;;;;;;;17.39;52.77;98314.22;7384742;19;20014;-73
2022/09/23 11:43:05;;;;;;;8.05;2.70;;;;;;;17.18;52.32;98322.38;7390674;19;20014;-73
2022/09/23 11:45:46;;;;;;;7.30;2.55;;;;;;;17.27;48.91;98319.34;7381395;19;20444;-73
2022/09/23 11:48:19;;;;;;;3.20;2.50;;;;;;;17.38;49.07;98315.25;7379820;19;20037;-74
2022/09/23 11:50:52;;;;;;;4.10;2.25;;;;;;;17.12;52.40;98302.63;7384526;19;20014;-74
2022/09/23 11:53:36;;;;;;;2.50;2.15;;;;;;;17.26;52.76;98308.84;7383182;19;20007;-72
2022/09/23 11:56:14;;;;;;;8.45;2.70;;;;;;;17.38;50.88;98303.72;7386033;19;20668;-73
2022/09/23 11:59:03;;;;;;;4.25;2.35;;;;;;;17.41;51.49;98303.34;7380031;19;20048;-74
2022/09/23 12:01:34;;;;;;;5.90;2.35;;;;;;;17.46;50.44;98299.03;7383700;19;20060;-73
2022/09/23 12:04:41;;;;;;;5.38;2.50;;;;;;;17.08;52.07;98304.84;7375679;19;20020;-72
2022/09/23 12:07:33;;;;;;;4.15;2.10;;;;;;;17.18;49.59;98306.34;7383010;19;20017;-73
2022/09/23 12:10:04;;;;;;;5.38;2.70;;;;;;;17.15;49.18;98304.06;7383944;19;20022;-72
2022/09/23 12:12:39;;;;;;;3.55;2.45;;;;;;;17.54;47.45;98303.38;7382227;19;20018;-72
2022/09/23 12:15:33;;;;;;;4.50;2.50;;;;;;;17.58;49.35;98303.78;7378585;19;20018;-71
2022/09/23 12:18:05;;;;;;;8.10;2.70;;;;;;;17.62;48.08;98305.03;7376942;19;20018;-73
2022/09/23 12:20:47;;;;;;;3.88;2.35;;;;;;;17.71;49.08;98299.28;7381536;19;20040;-73